Alleghany, CA

7:30 AM PDT on August 30, 2014 (GMT -0700)
Truckee-Tahoe | Change Station
CLOSE
Current Station
Airport
Location: Truckee-Tahoe,
Elevation: 5899 ft
Nearby Weather Stations

Elev 5899 ft 39.32 °N, 120.14 °W | Updated -966 second ago

Clear
Clear
45 °F
Feels Like 45 °F
N
0
Wind Variable Wind from North

Today
High -- | Low -- °F
--% Chance of Precip.
Yesterday
High -- | Low -- °F
Precip. -- in
6:29 AM 7:36 PM
Waxing Crescent, 22% visible
Pressure 30.14 in
Visibility 10.0 miles
Clouds Clear
Dew Point 34 °F
Humidity 66%
Rainfall 0.00 in
Snow Depth Not available.
UV 1 out of 12
Pollen 9.00 out of 12
Ozone Moderate
Flu Activity Not available.
METAR KTRK 301447Z 00000KT 10SM SKC 07/01 A3014 RMK NOSPECI FIRST 24HR MAX 0300 MIN 0067

More Conditions Fewer Conditions

Pressure 30.14 in
Visibility 10.0 miles
Clouds Clear
Dew Point 34 °F
Humidity 66%
Rainfall 0.00 in
Snow Depth Not available.
UV 1 out of 12
Pollen 9.00 out of 12
Ozone Moderate
Flu Activity Not available.
METAR KTRK 301447Z 00000KT 10SM SKC 07/01 A3014 RMK NOSPECI FIRST 24HR MAX 0300 MIN 0067

More Conditions Fewer Conditions

10-Day Weather Forecast

Almanac

Astronomy

Aug. 30, 2014 Rise Set
Actual Time 6:29 AM PDT 7:36 PM PDT
Civil Twilight 6:01 AM PDT 8:04 PM PDT
Nautical Twilight 5:28 AM PDT 8:37 PM PDT
Astronomical Twilight 4:53 AM PDT 9:11 PM PDT
Moon 11:20 AM PDT 10:15 PM PDT
Length of Visible Light 14h 02m
Length of Day
13h 07m
Tomorrow will be 2m 29s shorter.
Waxing Crescent, 22% of the Moon is Illuminated
Today
Waxing Crescent
Sep 2
First Quarter
Sep 8
Full
Sep 15
Last Quarter
Sep 24
New

Today's Extremes

State Highs State Lows

Community

WunderPhotos

Upload Photos

1,748,523 photos uploaded!

WunderBlogs® & News

By Dr. Jeff Masters
Director of Meteorology, Weather Underground
By Kari Strenfel
Meteorologist, Weather Underground
By Christopher C. Burt
Weather Historian, Weather Underground
August 30, 2014
August 30, 2014
August 30, 2014

Nearby

Air Quality

  Air Quality AQ Index Pollutant
Yesterday Moderate
OZONE
Current Moderate
OZONE
Saturday Moderate
OZONE
Sunday Moderate
OZONE
Monday Moderate
OZONE
Tuesday Moderate
OZONE
Wednesday Moderate
OZONE

Snow Depth

Station Depth Elevation
CSS Lab 2 in 6900 ft
Independence Camp 0 in 7000 ft
Tahoe City Cross 0 in 6750 ft
Rubicon #2 0 in 7500 ft
Echo Peak 1 in 7800 ft

Earthquake Activity

City Distance Mag. Time & Date
No recent earthquake activity has been reported nearby.
Minimum magnitude displayed is 2.5.

Coastal Water Temperatures

Place Temperature
No Stations Reporting

Nearby Weather Stations